createdAt,value
2022-07-29T00:00:23.186Z,1018.04
2022-07-29T00:01:31.072Z,1018.00
2022-07-29T00:02:34.534Z,1017.95
2022-07-29T00:04:10.905Z,1017.95
2022-07-29T00:05:15.106Z,1017.94
2022-07-29T00:06:18.387Z,1017.93
2022-07-29T00:07:53.220Z,1017.90
2022-07-29T00:09:02.491Z,1017.82
2022-07-29T00:10:05.675Z,1017.84
2022-07-29T00:11:40.387Z,1017.80
2022-07-29T00:12:43.590Z,1017.82
2022-07-29T00:13:50.880Z,1017.77
2022-07-29T00:15:25.774Z,1017.82
2022-07-29T00:16:28.805Z,1017.81
2022-07-29T00:17:31.806Z,1017.82
2022-07-29T00:19:08.172Z,1017.79
2022-07-29T00:20:11.259Z,1017.79
2022-07-29T00:21:13.915Z,1017.77
2022-07-29T00:22:48.383Z,1017.77
2022-07-29T00:23:51.087Z,1017.75
2022-07-29T00:24:53.886Z,1017.73
2022-07-29T00:26:30.977Z,1017.73
2022-07-29T00:27:33.876Z,1017.70
2022-07-29T00:28:36.948Z,1017.72
2022-07-29T00:30:49.970Z,1017.72
2022-07-29T00:31:53.588Z,1017.71
2022-07-29T00:32:56.829Z,1017.70
2022-07-29T00:34:32.622Z,1017.71
2022-07-29T00:35:35.302Z,1017.72
2022-07-29T00:36:38.965Z,1017.68
2022-07-29T00:38:13.559Z,1017.74
2022-07-29T00:39:16.434Z,1017.65
2022-07-29T00:40:19.257Z,1017.64
2022-07-29T00:42:01.761Z,1017.66
2022-07-29T00:43:05.104Z,1017.66
2022-07-29T00:44:07.920Z,1017.61
2022-07-29T00:45:43.268Z,1017.57
2022-07-29T00:46:46.191Z,1017.55
2022-07-29T00:47:49.521Z,1017.58
2022-07-29T00:49:24.728Z,1017.49
2022-07-29T00:50:27.449Z,1017.49
2022-07-29T00:51:30.070Z,1017.46
2022-07-29T00:53:09.007Z,1017.44
2022-07-29T00:54:13.756Z,1017.41
2022-07-29T00:55:20.108Z,1017.43
2022-07-29T00:56:54.951Z,1017.46
2022-07-29T00:57:58.206Z,1017.43
2022-07-29T00:59:02.709Z,1017.42
2022-07-29T01:00:23.693Z,1017.41
2022-07-29T01:01:27.070Z,1017.45
2022-07-29T01:02:30.534Z,1017.46
2022-07-29T01:04:05.338Z,1017.47
2022-07-29T01:05:08.850Z,1017.48
2022-07-29T01:06:35.888Z,1017.46
2022-07-29T01:08:10.398Z,1017.44
2022-07-29T01:09:13.185Z,1017.48
2022-07-29T01:10:39.443Z,1017.39
2022-07-29T01:12:14.057Z,1017.38
2022-07-29T01:13:19.739Z,1017.38
2022-07-29T01:14:23.087Z,1017.35
2022-07-29T01:16:01.241Z,1017.36
2022-07-29T01:17:05.348Z,1017.35
2022-07-29T01:18:09.886Z,1017.34
2022-07-29T01:19:48.865Z,1017.34
2022-07-29T01:20:51.687Z,1017.31
2022-07-29T01:21:55.399Z,1017.28
2022-07-29T01:23:30.112Z,1017.29
2022-07-29T01:24:32.770Z,1017.27
2022-07-29T01:25:35.670Z,1017.28
2022-07-29T01:27:23.794Z,1017.24
2022-07-29T01:28:30.757Z,1017.26
2022-07-29T01:29:49.639Z,1017.23
2022-07-29T01:31:40.276Z,1017.26
2022-07-29T01:33:20.908Z,1017.24
2022-07-29T01:34:25.030Z,1017.23
2022-07-29T01:35:59.530Z,1017.22
2022-07-29T01:37:02.297Z,1017.24
2022-07-29T01:38:04.965Z,1017.18
2022-07-29T01:39:44.673Z,1017.15
2022-07-29T01:40:48.560Z,1017.23
2022-07-29T01:41:51.299Z,1017.19
2022-07-29T01:43:25.900Z,1017.20
2022-07-29T01:44:29.356Z,1017.23
2022-07-29T01:45:32.093Z,1017.18
2022-07-29T01:47:07.216Z,1017.21
2022-07-29T01:48:09.881Z,1017.18
2022-07-29T01:49:12.878Z,1017.18
2022-07-29T01:50:47.882Z,1017.15
2022-07-29T01:51:50.504Z,1017.14
2022-07-29T01:52:53.367Z,1017.14
2022-07-29T01:54:35.254Z,1017.14
2022-07-29T01:55:38.519Z,1017.15
2022-07-29T01:56:45.067Z,1017.13
2022-07-29T01:58:19.946Z,1017.12
2022-07-29T01:59:22.731Z,1017.13
2022-07-29T02:00:23.279Z,1017.09
2022-07-29T02:01:29.980Z,1017.07
2022-07-29T02:02:33.090Z,1017.05
2022-07-29T02:04:07.484Z,1017.07
2022-07-29T02:05:27.820Z,1017.05
2022-07-29T02:06:30.631Z,1017.06
2022-07-29T02:08:05.122Z,1016.99
2022-07-29T02:09:08.569Z,1017.00
2022-07-29T02:10:11.509Z,1016.97
2022-07-29T02:11:49.524Z,1016.97
2022-07-29T02:12:56.639Z,1017.01
2022-07-29T02:13:59.476Z,1017.01
2022-07-29T02:15:34.600Z,1017.05
2022-07-29T02:16:38.129Z,1017.09
2022-07-29T02:17:44.397Z,1017.10
2022-07-29T02:19:18.854Z,1017.14
2022-07-29T02:20:21.858Z,1017.11
2022-07-29T02:21:26.714Z,1017.06
2022-07-29T02:23:01.124Z,1017.06
2022-07-29T02:24:03.774Z,1017.01
2022-07-29T02:25:14.217Z,1017.02
2022-07-29T02:27:02.767Z,1017.03
2022-07-29T02:28:05.436Z,1017.03
2022-07-29T02:29:08.087Z,1017.05
2022-07-29T02:30:42.517Z,1017.04
2022-07-29T02:31:46.346Z,1017.03
2022-07-29T02:32:52.688Z,1017.01
2022-07-29T02:34:31.254Z,1017.04
2022-07-29T02:35:40.331Z,1016.98
2022-07-29T02:36:43.031Z,1016.97
2022-07-29T02:38:18.493Z,1017.01
2022-07-29T02:39:22.034Z,1017.00
2022-07-29T02:40:25.330Z,1017.02
2022-07-29T02:41:59.757Z,1016.96
2022-07-29T02:43:02.381Z,1016.95
2022-07-29T02:44:05.069Z,1016.95
2022-07-29T02:45:40.623Z,1016.98
2022-07-29T02:46:49.280Z,1017.01
2022-07-29T02:47:53.328Z,1017.03
2022-07-29T02:49:28.370Z,1017.07
2022-07-29T02:50:31.099Z,1017.11
2022-07-29T02:51:55.666Z,1017.10
2022-07-29T02:53:30.110Z,1017.18
2022-07-29T02:54:32.851Z,1017.16
2022-07-29T02:55:35.515Z,1017.17
2022-07-29T02:57:11.492Z,1017.20
2022-07-29T02:58:14.307Z,1017.17
2022-07-29T02:59:16.978Z,1017.18
2022-07-29T03:00:23.854Z,1017.18
2022-07-29T03:01:33.073Z,1017.18
2022-07-29T03:02:37.635Z,1017.20
2022-07-29T03:04:12.339Z,1017.21
2022-07-29T03:05:16.619Z,1017.22
2022-07-29T03:06:44.484Z,1017.21
2022-07-29T03:08:19.218Z,1017.25
2022-07-29T03:09:24.866Z,1017.22
2022-07-29T03:10:27.624Z,1017.23
2022-07-29T03:12:02.366Z,1017.24
2022-07-29T03:13:05.288Z,1017.22
2022-07-29T03:14:08.019Z,1017.22
2022-07-29T03:15:45.162Z,1017.17
2022-07-29T03:16:52.501Z,1017.13
2022-07-29T03:17:55.172Z,1017.12
2022-07-29T03:19:29.709Z,1017.14
2022-07-29T03:20:32.671Z,1017.10
2022-07-29T03:21:35.518Z,1017.08
2022-07-29T03:23:10.843Z,1017.04
2022-07-29T03:24:23.003Z,1017.05
2022-07-29T03:25:25.646Z,1017.07
2022-07-29T03:27:00.378Z,1017.08
2022-07-29T03:28:03.173Z,1017.12
2022-07-29T03:29:08.110Z,1017.10
2022-07-29T03:31:08.254Z,1017.11
2022-07-29T03:32:14.754Z,1017.11
2022-07-29T03:33:25.029Z,1017.12
2022-07-29T03:35:00.013Z,1017.13
2022-07-29T03:36:02.962Z,1017.08
2022-07-29T03:37:05.553Z,1017.07
2022-07-29T03:38:40.640Z,1017.08
2022-07-29T03:39:43.617Z,1017.07
2022-07-29T03:40:46.306Z,1017.02
2022-07-29T03:42:21.050Z,1017.02
2022-07-29T03:43:29.591Z,1017.06
2022-07-29T03:44:41.642Z,1017.05
2022-07-29T03:46:20.057Z,1017.05
2022-07-29T03:47:27.023Z,1017.06
2022-07-29T03:48:58.574Z,1017.04
2022-07-29T03:50:33.688Z,1017.00
2022-07-29T03:51:45.626Z,1016.97
2022-07-29T03:52:51.059Z,1016.97
2022-07-29T03:54:26.861Z,1017.00
2022-07-29T03:55:29.547Z,1017.00
2022-07-29T03:56:32.296Z,1016.99
2022-07-29T03:58:08.980Z,1017.00
2022-07-29T03:59:11.731Z,1016.99
2022-07-29T04:00:23.671Z,1016.97
2022-07-29T04:01:26.582Z,1017.03
2022-07-29T04:02:36.626Z,1017.01
2022-07-29T04:04:13.982Z,1017.04
2022-07-29T04:05:53.170Z,1017.03
2022-07-29T04:06:56.968Z,1017.07
2022-07-29T04:07:59.814Z,1017.09
2022-07-29T04:09:34.790Z,1017.02
2022-07-29T04:10:45.151Z,1017.01
2022-07-29T04:12:15.219Z,1017.00
2022-07-29T04:13:49.976Z,1017.01
2022-07-29T04:14:52.917Z,1017.03
2022-07-29T04:15:56.224Z,1017.00
2022-07-29T04:17:31.631Z,1017.02
2022-07-29T04:18:35.396Z,1016.99
2022-07-29T04:19:39.657Z,1017.00
2022-07-29T04:21:14.387Z,1017.11
2022-07-29T04:22:17.433Z,1017.06
2022-07-29T04:23:20.295Z,1017.03
2022-07-29T04:25:15.732Z,1017.01
2022-07-29T04:26:19.921Z,1017.04
2022-07-29T04:27:22.777Z,1017.00
2022-07-29T04:28:57.515Z,1016.97
2022-07-29T04:30:08.827Z,1016.99
2022-07-29T04:31:12.226Z,1016.95
2022-07-29T04:32:54.985Z,1016.93
2022-07-29T04:33:57.709Z,1016.94
2022-07-29T04:35:01.064Z,1016.89
2022-07-29T04:36:49.219Z,1016.84
2022-07-29T04:37:52.355Z,1016.87
2022-07-29T04:39:03.262Z,1016.85
2022-07-29T04:40:50.078Z,1016.84
2022-07-29T04:41:54.982Z,1016.86
2022-07-29T04:43:00.760Z,1016.88
2022-07-29T04:44:48.884Z,1016.88
2022-07-29T04:45:53.775Z,1016.95
2022-07-29T04:46:57.001Z,1016.99
2022-07-29T04:48:39.669Z,1016.93
2022-07-29T04:49:43.434Z,1016.97
2022-07-29T04:50:46.422Z,1016.99
2022-07-29T04:52:21.553Z,1017.06
2022-07-29T04:53:24.465Z,1017.07
2022-07-29T04:54:28.020Z,1017.02
2022-07-29T04:56:02.510Z,1017.00
2022-07-29T04:57:05.506Z,1016.94
2022-07-29T04:58:09.951Z,1016.97
2022-07-29T04:59:44.767Z,1016.94
2022-07-29T05:00:23.698Z,1016.94
2022-07-29T05:01:31.609Z,1016.96
2022-07-29T05:02:35.686Z,1016.99
2022-07-29T05:04:12.799Z,1017.02
2022-07-29T05:05:16.773Z,1016.98
2022-07-29T05:06:19.634Z,1016.95
2022-07-29T05:07:54.737Z,1016.88
2022-07-29T05:08:57.432Z,1016.85
2022-07-29T05:10:00.423Z,1016.87
2022-07-29T05:11:41.260Z,1016.86
2022-07-29T05:12:44.409Z,1016.91
2022-07-29T05:13:58.277Z,1016.93
2022-07-29T05:15:33.777Z,1016.91
2022-07-29T05:16:37.047Z,1016.77
2022-07-29T05:17:39.880Z,1016.72
2022-07-29T05:19:25.016Z,1016.66
2022-07-29T05:20:31.464Z,1016.68
2022-07-29T05:21:36.060Z,1016.67
2022-07-29T05:23:10.717Z,1016.70
2022-07-29T05:24:14.015Z,1016.67
2022-07-29T05:25:20.600Z,1016.74
2022-07-29T05:27:13.688Z,1016.76
2022-07-29T05:28:16.451Z,1016.71
2022-07-29T05:29:56.286Z,1016.75
2022-07-29T05:31:31.599Z,1016.77
2022-07-29T05:32:34.407Z,1016.79
2022-07-29T05:33:48.197Z,1016.77
2022-07-29T05:35:36.159Z,1016.84
2022-07-29T05:36:44.810Z,1016.82
2022-07-29T05:37:47.626Z,1016.79
2022-07-29T05:39:47.159Z,1016.82
2022-07-29T05:40:55.006Z,1016.80
2022-07-29T05:42:03.293Z,1016.79
2022-07-29T05:43:38.269Z,1016.79
2022-07-29T05:44:41.146Z,1016.77
2022-07-29T05:45:56.303Z,1016.75
2022-07-29T05:47:31.765Z,1016.70
2022-07-29T05:48:34.970Z,1016.70
2022-07-29T05:49:38.955Z,1016.73
2022-07-29T05:51:13.582Z,1016.70
2022-07-29T05:52:16.353Z,1016.73
2022-07-29T05:53:31.861Z,1016.75
2022-07-29T05:55:07.296Z,1016.71
2022-07-29T05:56:10.061Z,1016.74
2022-07-29T05:57:13.011Z,1016.79
2022-07-29T05:58:47.794Z,1016.82
2022-07-29T06:00:23.408Z,1016.87
2022-07-29T06:01:27.196Z,1016.90
2022-07-29T06:02:31.010Z,1017.04
2022-07-29T06:04:06.897Z,1017.07
2022-07-29T06:05:17.185Z,1017.25
2022-07-29T06:06:20.341Z,1017.35
2022-07-29T06:08:03.024Z,1017.41
2022-07-29T06:09:17.983Z,1017.47
2022-07-29T06:10:23.867Z,1017.50
2022-07-29T06:12:01.755Z,1017.55
2022-07-29T06:13:04.604Z,1017.62
2022-07-29T06:14:07.709Z,1017.67
2022-07-29T06:15:47.633Z,1017.70
2022-07-29T06:16:51.607Z,1017.69
2022-07-29T06:18:12.235Z,1017.67
2022-07-29T06:19:47.025Z,1017.62
2022-07-29T06:20:50.185Z,1017.59
2022-07-29T06:21:53.382Z,1017.62
2022-07-29T06:23:28.264Z,1017.56
2022-07-29T06:24:31.700Z,1017.57
2022-07-29T06:25:34.566Z,1017.53
2022-07-29T06:27:17.484Z,1017.52
2022-07-29T06:28:21.865Z,1017.46
2022-07-29T06:29:24.735Z,1017.36
2022-07-29T06:31:00.077Z,1017.41
2022-07-29T06:32:03.308Z,1017.46
2022-07-29T06:33:09.205Z,1017.50
2022-07-29T06:34:49.578Z,1017.54
2022-07-29T06:36:43.266Z,1017.56
2022-07-29T06:37:48.870Z,1017.52
2022-07-29T06:40:10.509Z,1017.42
2022-07-29T06:41:13.340Z,1017.36
2022-07-29T06:42:16.109Z,1017.32
2022-07-29T06:44:05.667Z,1017.32
2022-07-29T06:45:14.915Z,1017.35
2022-07-29T06:46:20.299Z,1017.35
2022-07-29T06:47:57.963Z,1017.40
2022-07-29T06:49:01.487Z,1017.40
2022-07-29T06:50:04.790Z,1017.40
2022-07-29T06:51:42.905Z,1017.41
2022-07-29T06:52:45.734Z,1017.39
2022-07-29T06:54:08.821Z,1017.38
2022-07-29T06:55:44.220Z,1017.39
2022-07-29T06:56:50.826Z,1017.38
2022-07-29T06:57:56.963Z,1017.39
2022-07-29T06:59:42.173Z,1017.33
2022-07-29T07:00:23.855Z,1017.33
2022-07-29T07:01:27.666Z,1017.30
2022-07-29T07:02:31.399Z,1017.29
2022-07-29T07:04:06.727Z,1017.30
2022-07-29T07:05:10.374Z,1017.34
2022-07-29T07:06:20.742Z,1017.39
2022-07-29T07:07:55.768Z,1017.36
2022-07-29T07:08:58.658Z,1017.38
2022-07-29T07:10:01.607Z,1017.39
2022-07-29T07:11:36.713Z,1017.44
2022-07-29T07:12:41.931Z,1017.44
2022-07-29T07:13:48.000Z,1017.45
2022-07-29T07:15:39.027Z,1017.40
2022-07-29T07:16:42.816Z,1017.40
2022-07-29T07:17:50.152Z,1017.40
2022-07-29T07:19:25.445Z,1017.32
2022-07-29T07:20:31.017Z,1017.33
2022-07-29T07:21:36.389Z,1017.30
2022-07-29T07:23:13.583Z,1017.32
2022-07-29T07:24:16.873Z,1017.32
2022-07-29T07:25:20.281Z,1017.30
2022-07-29T07:26:56.862Z,1017.30
2022-07-29T07:27:59.773Z,1017.31
2022-07-29T07:29:02.725Z,1017.30
2022-07-29T07:30:41.409Z,1017.29
2022-07-29T07:31:45.005Z,1017.30
2022-07-29T07:32:53.010Z,1017.31
2022-07-29T07:34:39.599Z,1017.29
2022-07-29T07:35:42.431Z,1017.24
2022-07-29T07:36:45.225Z,1017.24
2022-07-29T07:38:21.555Z,1017.21
2022-07-29T07:39:24.175Z,1017.23
2022-07-29T07:40:30.193Z,1017.26
2022-07-29T07:42:05.070Z,1017.27
2022-07-29T07:43:07.813Z,1017.25
2022-07-29T07:44:15.678Z,1017.21
2022-07-29T07:46:15.893Z,1017.18
2022-07-29T07:47:24.021Z,1017.25
2022-07-29T07:48:26.878Z,1017.24
2022-07-29T07:50:02.044Z,1017.22
2022-07-29T07:51:10.463Z,1017.27
2022-07-29T07:52:13.531Z,1017.28
2022-07-29T07:53:48.321Z,1017.26
2022-07-29T07:54:54.232Z,1017.26
2022-07-29T07:56:19.081Z,1017.30
2022-07-29T07:57:58.869Z,1017.28
2022-07-29T07:59:01.734Z,1017.23
2022-07-29T08:00:23.888Z,1017.25
2022-07-29T08:01:27.143Z,1017.22
2022-07-29T08:02:54.439Z,1017.19
2022-07-29T08:04:41.206Z,1017.18
2022-07-29T08:05:45.050Z,1017.15
2022-07-29T08:06:47.948Z,1017.14
2022-07-29T08:08:24.219Z,1017.16
2022-07-29T08:09:40.776Z,1017.11
2022-07-29T08:10:43.730Z,1017.15
2022-07-29T08:12:38.568Z,1017.09
2022-07-29T08:13:41.682Z,1017.11
2022-07-29T08:14:44.827Z,1017.12
2022-07-29T08:16:20.334Z,1017.09
2022-07-29T08:17:23.541Z,1017.09
2022-07-29T08:18:27.297Z,1017.09
2022-07-29T08:20:02.090Z,1017.09
2022-07-29T08:21:05.980Z,1017.12
2022-07-29T08:22:12.652Z,1017.09
2022-07-29T08:24:07.519Z,1017.08
2022-07-29T08:25:10.651Z,1017.09
2022-07-29T08:26:15.131Z,1017.08
2022-07-29T08:27:55.624Z,1017.09
2022-07-29T08:28:58.618Z,1017.05
2022-07-29T08:30:06.251Z,1017.04
2022-07-29T08:31:41.911Z,1017.05
2022-07-29T08:33:00.536Z,1017.07
2022-07-29T08:34:04.469Z,1017.07
2022-07-29T08:35:47.885Z,1017.02
2022-07-29T08:36:56.421Z,1017.04
2022-07-29T08:37:59.333Z,1017.07
2022-07-29T08:39:34.462Z,1017.11
2022-07-29T08:40:43.759Z,1017.11
2022-07-29T08:42:03.138Z,1017.12
2022-07-29T08:43:38.374Z,1017.16
2022-07-29T08:44:42.585Z,1017.20
2022-07-29T08:45:52.748Z,1017.20
2022-07-29T08:47:28.061Z,1017.18
2022-07-29T08:48:30.727Z,1017.21
2022-07-29T08:49:34.204Z,1017.24
2022-07-29T08:51:10.554Z,1017.23
2022-07-29T08:52:13.620Z,1017.20
2022-07-29T08:53:16.551Z,1017.22
2022-07-29T08:54:51.428Z,1017.18
2022-07-29T08:55:54.346Z,1017.17
2022-07-29T08:57:00.448Z,1017.19
2022-07-29T08:58:56.261Z,1017.26
2022-07-29T09:00:23.790Z,1017.26
2022-07-29T09:01:48.072Z,1017.25
2022-07-29T09:02:58.029Z,1017.28
2022-07-29T09:04:33.191Z,1017.31
2022-07-29T09:05:40.641Z,1017.33
2022-07-29T09:06:45.473Z,1017.36
2022-07-29T09:08:26.678Z,1017.39
2022-07-29T09:09:29.944Z,1017.38
2022-07-29T09:10:32.816Z,1017.39
2022-07-29T09:12:08.568Z,1017.37
2022-07-29T09:13:29.834Z,1017.36
2022-07-29T09:14:34.421Z,1017.36
2022-07-29T09:16:22.487Z,1017.33
2022-07-29T09:17:53.839Z,1017.35
2022-07-29T09:19:17.307Z,1017.38
2022-07-29T09:20:52.004Z,1017.44
2022-07-29T09:21:54.877Z,1017.47
2022-07-29T09:23:00.900Z,1017.48
2022-07-29T09:24:47.347Z,1017.43
2022-07-29T09:25:50.115Z,1017.42
2022-07-29T09:26:53.111Z,1017.41
2022-07-29T09:28:28.100Z,1017.38
2022-07-29T09:29:35.986Z,1017.42
2022-07-29T09:30:43.222Z,1017.41
2022-07-29T09:32:18.271Z,1017.42
2022-07-29T09:33:21.253Z,1017.40
2022-07-29T09:34:24.253Z,1017.43
2022-07-29T09:36:09.671Z,1017.47
2022-07-29T09:37:12.665Z,1017.51
2022-07-29T09:38:15.470Z,1017.52
2022-07-29T09:39:50.661Z,1017.52
2022-07-29T09:40:58.226Z,1017.55
2022-07-29T09:42:07.413Z,1017.53
2022-07-29T09:43:43.590Z,1017.49
2022-07-29T09:44:46.461Z,1017.46
2022-07-29T09:45:49.389Z,1017.47
2022-07-29T09:47:30.912Z,1017.47
2022-07-29T09:48:33.684Z,1017.44
2022-07-29T09:49:36.735Z,1017.42
2022-07-29T09:51:15.064Z,1017.46
2022-07-29T09:52:35.947Z,1017.46
2022-07-29T09:53:38.948Z,1017.50
2022-07-29T09:55:23.929Z,1017.57
2022-07-29T09:56:27.689Z,1017.55
2022-07-29T09:57:36.702Z,1017.58
2022-07-29T09:59:11.149Z,1017.59
2022-07-29T10:00:24.039Z,1017.57
2022-07-29T10:01:27.496Z,1017.58
2022-07-29T10:02:35.175Z,1017.59
2022-07-29T10:04:10.886Z,1017.61
2022-07-29T10:05:14.301Z,1017.59
2022-07-29T10:06:23.229Z,1017.52
2022-07-29T10:08:05.652Z,1017.59
2022-07-29T10:09:08.580Z,1017.56
2022-07-29T10:10:14.178Z,1017.62
2022-07-29T10:12:07.742Z,1017.67
2022-07-29T10:13:22.072Z,1017.66
2022-07-29T10:14:25.201Z,1017.66
2022-07-29T10:16:00.317Z,1017.63
2022-07-29T10:17:05.845Z,1017.65
2022-07-29T10:18:08.576Z,1017.64
2022-07-29T10:19:44.351Z,1017.64
2022-07-29T10:20:47.380Z,1017.69
2022-07-29T10:21:52.872Z,1017.70
2022-07-29T10:23:59.554Z,1017.64
2022-07-29T10:25:12.300Z,1017.63
2022-07-29T10:26:15.174Z,1017.64
2022-07-29T10:27:49.974Z,1017.59
2022-07-29T10:28:54.459Z,1017.62
2022-07-29T10:29:58.984Z,1017.64
2022-07-29T10:31:34.207Z,1017.59
2022-07-29T10:32:37.459Z,1017.59
2022-07-29T10:33:45.711Z,1017.59
2022-07-29T10:35:21.068Z,1017.56
2022-07-29T10:36:26.624Z,1017.56
2022-07-29T10:37:35.386Z,1017.54
2022-07-29T10:39:22.326Z,1017.50
2022-07-29T10:40:47.061Z,1017.48
2022-07-29T10:41:58.351Z,1017.46
2022-07-29T10:43:43.396Z,1017.48
2022-07-29T10:44:52.959Z,1017.43
2022-07-29T10:46:03.308Z,1017.48
2022-07-29T11:00:28.197Z,1017.50
2022-07-29T11:02:10.909Z,1017.47
2022-07-29T11:03:49.419Z,1017.53
2022-07-29T11:05:32.194Z,1017.54
2022-07-29T11:06:55.127Z,1017.53
2022-07-29T11:08:07.883Z,1017.62
2022-07-29T11:09:56.281Z,1017.61
2022-07-29T11:11:00.206Z,1017.60
2022-07-29T11:12:06.127Z,1017.63
2022-07-29T11:13:48.873Z,1017.60
2022-07-29T11:14:56.686Z,1017.57
2022-07-29T11:16:01.139Z,1017.57
2022-07-29T12:07:15.372Z,1017.19
2022-07-29T12:08:34.581Z,1017.14
2022-07-29T12:09:51.487Z,1017.14
2022-07-29T12:11:41.497Z,1017.13
2022-07-29T12:12:51.798Z,1017.13
2022-07-29T12:13:56.724Z,1017.06
2022-07-29T12:15:52.589Z,1017.09
2022-07-29T12:17:01.285Z,1017.10
2022-07-29T12:18:09.705Z,1017.10
2022-07-29T12:19:50.971Z,1017.10
2022-07-29T12:20:56.031Z,1017.11
2022-07-29T12:22:11.941Z,1017.11
2022-07-29T12:23:48.716Z,1017.10
2022-07-29T12:25:37.719Z,1017.10
2022-07-29T12:26:46.203Z,1017.09
2022-07-29T12:28:40.566Z,1017.07
2022-07-29T12:29:54.570Z,1017.06
2022-07-29T12:31:05.026Z,1017.04
2022-07-29T12:33:17.047Z,1017.01
2022-07-29T12:34:21.118Z,1017.02
2022-07-29T12:35:24.011Z,1017.01
2022-07-29T12:37:09.810Z,1016.96
2022-07-29T12:38:33.350Z,1016.99
2022-07-29T12:39:39.790Z,1016.97
2022-07-29T12:41:15.955Z,1016.96
2022-07-29T12:42:24.917Z,1016.93
2022-07-29T12:43:27.732Z,1016.91
2022-07-29T12:45:02.412Z,1016.91
2022-07-29T12:46:05.138Z,1016.90
2022-07-29T12:47:08.734Z,1016.89
2022-07-29T12:48:43.430Z,1016.88
2022-07-29T12:49:50.285Z,1016.90
2022-07-29T12:50:53.011Z,1016.90
2022-07-29T12:52:27.961Z,1016.87
2022-07-29T12:53:30.990Z,1016.81
2022-07-29T12:54:37.880Z,1016.83
2022-07-29T12:56:42.723Z,1016.82
2022-07-29T12:57:46.621Z,1016.84
2022-07-29T12:58:56.871Z,1016.83
2022-07-29T13:00:23.742Z,1016.77
2022-07-29T13:01:29.088Z,1016.78
2022-07-29T13:02:32.129Z,1016.78
2022-07-29T13:04:11.203Z,1016.75
2022-07-29T13:05:14.568Z,1016.74
2022-07-29T13:06:17.406Z,1016.75
2022-07-29T13:08:08.700Z,1016.78
2022-07-29T13:09:25.150Z,1016.71
2022-07-29T13:10:30.464Z,1016.71
2022-07-29T13:12:05.896Z,1016.74
2022-07-29T13:13:08.466Z,1016.75
2022-07-29T13:14:18.513Z,1016.77
2022-07-29T13:15:53.387Z,1016.73
2022-07-29T13:16:56.219Z,1016.75
2022-07-29T13:17:59.410Z,1016.72
2022-07-29T13:19:37.741Z,1016.73
2022-07-29T13:20:40.441Z,1016.75
2022-07-29T13:21:43.751Z,1016.72
2022-07-29T13:23:19.326Z,1016.74
2022-07-29T13:24:31.037Z,1016.74
2022-07-29T13:25:33.875Z,1016.78
2022-07-29T13:27:11.456Z,1016.72
2022-07-29T13:28:14.317Z,1016.73
2022-07-29T13:29:17.291Z,1016.70
2022-07-29T13:30:56.222Z,1016.71
2022-07-29T13:31:59.802Z,1016.71
2022-07-29T13:33:02.917Z,1016.73
2022-07-29T13:34:38.985Z,1016.76
2022-07-29T13:35:45.960Z,1016.72
2022-07-29T13:36:52.847Z,1016.73
2022-07-29T13:38:36.547Z,1016.72
2022-07-29T13:39:39.498Z,1016.69
2022-07-29T13:40:50.615Z,1016.72
2022-07-29T13:42:25.694Z,1016.71
2022-07-29T13:43:28.357Z,1016.70
2022-07-29T13:44:36.087Z,1016.67
2022-07-29T13:46:15.375Z,1016.65
2022-07-29T13:47:18.350Z,1016.69
2022-07-29T13:48:35.787Z,1016.71
2022-07-29T13:50:12.568Z,1016.66
2022-07-29T13:51:15.808Z,1016.67
2022-07-29T13:52:18.611Z,1016.68
2022-07-29T13:53:53.148Z,1016.63
2022-07-29T13:54:55.921Z,1016.63
2022-07-29T13:55:59.658Z,1016.64
2022-07-29T13:57:34.628Z,1016.62
2022-07-29T13:58:37.499Z,1016.63
2022-07-29T13:59:40.391Z,1016.62
2022-07-29T14:00:23.086Z,1016.62
2022-07-29T14:01:26.117Z,1016.59
2022-07-29T14:02:31.844Z,1016.58
2022-07-29T14:04:07.355Z,1016.59
2022-07-29T14:05:14.317Z,1016.61
2022-07-29T14:06:17.081Z,1016.60
2022-07-29T14:07:55.933Z,1016.61
2022-07-29T14:08:58.687Z,1016.65
2022-07-29T14:10:01.374Z,1016.56
2022-07-29T14:11:42.938Z,1016.57
2022-07-29T14:12:46.279Z,1016.53
2022-07-29T14:13:49.222Z,1016.52
2022-07-29T14:15:23.914Z,1016.49
2022-07-29T14:16:31.106Z,1016.49
2022-07-29T14:17:44.164Z,1016.51
2022-07-29T14:19:19.749Z,1016.46
2022-07-29T14:20:23.000Z,1016.47
2022-07-29T14:21:25.805Z,1016.47
2022-07-29T14:23:04.603Z,1016.47
2022-07-29T14:24:27.803Z,1016.46
2022-07-29T14:25:36.183Z,1016.46
2022-07-29T14:27:37.879Z,1016.45
2022-07-29T14:28:47.691Z,1016.44
2022-07-29T14:29:50.479Z,1016.42
2022-07-29T14:31:25.038Z,1016.42
2022-07-29T14:32:28.488Z,1016.45
2022-07-29T14:33:31.197Z,1016.34
2022-07-29T14:35:10.355Z,1016.39
2022-07-29T14:36:13.094Z,1016.39
2022-07-29T14:37:21.980Z,1016.40
2022-07-29T14:39:03.697Z,1016.46
2022-07-29T14:40:06.422Z,1016.41
2022-07-29T14:41:09.176Z,1016.46
2022-07-29T14:42:44.313Z,1016.44
2022-07-29T14:43:47.112Z,1016.42
2022-07-29T14:44:50.350Z,1016.43
2022-07-29T14:46:26.246Z,1016.44
2022-07-29T14:47:34.586Z,1016.42
2022-07-29T14:48:42.555Z,1016.42
2022-07-29T14:50:17.466Z,1016.40
2022-07-29T14:51:37.914Z,1016.42
2022-07-29T14:52:42.376Z,1016.42
2022-07-29T14:54:18.170Z,1016.38
2022-07-29T14:55:31.177Z,1016.37
2022-07-29T14:56:52.682Z,1016.35
2022-07-29T14:58:27.985Z,1016.36
2022-07-29T14:59:43.256Z,1016.36
2022-07-29T15:00:23.842Z,1016.33
2022-07-29T15:01:26.827Z,1016.32
2022-07-29T15:03:01.750Z,1016.30
2022-07-29T15:04:56.990Z,1016.32
2022-07-29T15:05:59.642Z,1016.38
2022-07-29T15:07:02.335Z,1016.37
2022-07-29T15:08:36.848Z,1016.41
2022-07-29T15:09:49.486Z,1016.38
2022-07-29T15:11:01.654Z,1016.33
2022-07-29T15:12:36.192Z,1016.35
2022-07-29T15:13:39.905Z,1016.36
2022-07-29T15:14:42.682Z,1016.35
2022-07-29T15:16:17.341Z,1016.38
2022-07-29T15:17:21.338Z,1016.36
2022-07-29T15:18:31.496Z,1016.33
2022-07-29T15:20:06.541Z,1016.35
2022-07-29T15:21:09.224Z,1016.35
2022-07-29T15:22:12.854Z,1016.38
2022-07-29T15:23:47.430Z,1016.30
2022-07-29T15:24:50.223Z,1016.36
2022-07-29T15:25:52.861Z,1016.40
2022-07-29T15:27:27.313Z,1016.34
2022-07-29T15:28:38.812Z,1016.41
2022-07-29T15:29:41.569Z,1016.37
2022-07-29T15:31:31.462Z,1016.37
2022-07-29T15:32:34.592Z,1016.36
2022-07-29T15:33:42.054Z,1016.35
2022-07-29T15:35:26.141Z,1016.33
2022-07-29T15:37:02.994Z,1016.33
2022-07-29T15:38:05.738Z,1016.32
2022-07-29T15:39:46.860Z,1016.34
2022-07-29T15:40:54.284Z,1016.34
2022-07-29T15:41:57.236Z,1016.32
2022-07-29T15:43:37.747Z,1016.27
2022-07-29T15:44:40.558Z,1016.28
2022-07-29T15:45:46.694Z,1016.31
2022-07-29T15:47:21.919Z,1016.25
2022-07-29T15:48:30.858Z,1016.27
2022-07-29T15:49:54.442Z,1016.25
2022-07-29T15:51:33.141Z,1016.22
2022-07-29T15:52:37.743Z,1016.22
2022-07-29T15:53:53.366Z,1016.22
2022-07-29T15:55:30.623Z,1016.22
2022-07-29T15:56:36.650Z,1016.23
2022-07-29T15:57:39.325Z,1016.22
2022-07-29T15:59:28.321Z,1016.20
2022-07-29T16:00:23.283Z,1016.25
2022-07-29T16:01:27.084Z,1016.24
2022-07-29T16:02:34.076Z,1016.26
2022-07-29T16:04:08.985Z,1016.22
2022-07-29T16:05:52.899Z,1016.22
2022-07-29T16:06:56.317Z,1016.23
2022-07-29T16:08:00.466Z,1016.26
2022-07-29T16:09:35.019Z,1016.26
2022-07-29T16:10:44.609Z,1016.22
2022-07-29T16:11:47.418Z,1016.20
2022-07-29T16:13:35.683Z,1016.23
2022-07-29T16:14:39.894Z,1016.21
2022-07-29T16:15:43.343Z,1016.22
2022-07-29T16:17:33.968Z,1016.19
2022-07-29T16:18:41.623Z,1016.20
2022-07-29T16:19:44.273Z,1016.23
2022-07-29T16:21:20.179Z,1016.19
2022-07-29T16:22:23.039Z,1016.23
2022-07-29T16:23:25.796Z,1016.21
2022-07-29T16:25:00.656Z,1016.21
2022-07-29T16:26:12.179Z,1016.21
2022-07-29T16:27:17.129Z,1016.23
2022-07-29T16:29:02.980Z,1016.22
2022-07-29T16:30:07.480Z,1016.23
2022-07-29T16:31:10.193Z,1016.20
2022-07-29T16:32:45.842Z,1016.20
2022-07-29T16:34:06.973Z,1016.22
2022-07-29T16:35:09.649Z,1016.22
2022-07-29T16:36:59.668Z,1016.22
2022-07-29T16:38:03.078Z,1016.17